| time (UTC) | temp C | wind direction | speed KPH | gust KPH | rain 1hr cm | rain 24hr cm | rain mn cm | humidity % | barometer mb |
| 20260506153036 | 14 | 112 | 0.0 | 6.4 | 0.00 | 0.00 | 0.00 | 61 | 1021.2 |
| 20260506151532 | 13 | 0 | 0.0 | 0.0 | 0.00 | 0.00 | 0.00 | 63 | 1021.2 |
| 20260506150034 | 13 | 0 | 0.0 | 4.8 | 0.00 | 0.00 | 0.00 | 67 | 1021.2 |
| 20260506144532 | 13 | 330 | 1.6 | 4.8 | 0.00 | 0.00 | 0.00 | 67 | 1021.0 |
| 20260506143032 | 12 | 22 | 3.2 | 6.4 | 0.00 | 0.00 | 0.00 | 71 | 1020.9 |
| 20260506141532 | 12 | 0 | 0.0 | 3.2 | 0.00 | 0.00 | 0.00 | 71 | 1020.5 |
| 20260506140030 | 11 | 0 | 0.0 | 3.2 | 0.00 | 0.00 | 0.00 | 74 | 1020.3 |
| 20260506134532 | 9 | 243 | 1.6 | 3.2 | 0.00 | 0.00 | 0.00 | 82 | 1020.3 |
| 20260506133032 | 7 | 0 | 0.0 | 6.4 | 0.00 | 0.00 | 0.00 | 85 | 1020.1 |
| 20260506131537 | 6 | 215 | 3.2 | 6.4 | 0.00 | 0.00 | 0.00 | 85 | 1019.8 |
| 20260506130032 | 6 | 218 | 4.8 | 8.0 | 0.00 | 0.00 | 0.00 | 84 | 1019.6 |
| 20260506124530 | 6 | 234 | 3.2 | 6.4 | 0.00 | 0.00 | 0.00 | 84 | 1019.4 |
| 20260506123033 | 6 | 215 | 3.2 | 6.4 | 0.00 | 0.00 | 0.00 | 83 | 1019.2 |
| 20260506121530 | 7 | 232 | 1.6 | 6.4 | 0.00 | 0.00 | 0.00 | 81 | 1019.0 |
| 20260506120034 | 7 | 0 | 0.0 | 0.0 | 0.00 | 0.00 | 0.00 | 81 | 1018.9 |
| 20260506114532 | 8 | 0 | 0.0 | 4.8 | 0.00 | 0.00 | 0.00 | 79 | 1018.8 |
| 20260506113039 | 9 | 242 | 1.6 | 6.4 | 0.00 | 0.00 | 0.00 | 75 | 1018.5 |
| 20260506111532 | 9 | 234 | 3.2 | 8.0 | 0.00 | 0.00 | 0.00 | 75 | 1018.3 |
| 20260506110030 | 9 | 215 | 4.8 | 9.7 | 0.00 | 0.00 | 0.00 | 75 | 1017.9 |
| 20260506104534 | 9 | 210 | 6.4 | 11.3 | 0.00 | 0.03 | 0.00 | 75 | 1017.8 |
| 20260506103031 | 9 | 207 | 6.4 | 11.3 | 0.00 | 0.03 | 0.00 | 74 | 1017.6 |
| 20260506101532 | 9 | 237 | 6.4 | 11.3 | 0.00 | 0.03 | 0.00 | 73 | 1017.5 |
| 20260506100034 | 10 | 238 | 6.4 | 11.3 | 0.00 | 0.03 | 0.00 | 72 | 1017.3 |
| 20260506094530 | 10 | 240 | 8.0 | 14.5 | 0.00 | 0.03 | 0.00 | 72 | 1017.0 |
| 20260506093031 | 10 | 223 | 8.0 | 12.9 | 0.00 | 0.03 | 0.00 | 72 | 1017.0 |
| 20260506091530 | 10 | 222 | 8.0 | 12.9 | 0.00 | 0.03 | 0.00 | 71 | 1016.9 |
| 20260506090033 | 11 | 224 | 4.8 | 12.9 | 0.00 | 0.03 | 0.00 | 69 | 1016.9 |
| 20260506084528 | 11 | 202 | 8.0 | 12.9 | 0.00 | 0.03 | 0.00 | 70 | 1016.8 |
| 20260506083031 | 11 | 229 | 8.0 | 16.1 | 0.00 | 0.03 | 0.00 | 70 | 1016.8 |
| 20260506081532 | 11 | 227 | 9.7 | 16.1 | 0.00 | 0.03 | 0.00 | 70 | 1016.7 |
| 20260506073031 | 11 | 261 | 8.0 | 14.5 | 0.00 | 0.03 | 0.00 | 67 | 1016.4 |
| 20260506071528 | 12 | 229 | 8.0 | 16.1 | 0.00 | 0.03 | 0.00 | 65 | 1016.2 |
| 20260506061532 | 12 | 227 | 6.4 | 12.9 | 0.00 | 0.08 | 0.03 | 65 | 1015.8 |
| 20260506044530 | 13 | 220 | 4.8 | 9.7 | 0.00 | 0.10 | 0.03 | 61 | 1014.4 |
| 20260506043031 | 13 | 234 | 3.2 | 6.4 | 0.00 | 0.10 | 0.03 | 61 | 1014.1 |
| 20260506041533 | 14 | 184 | 1.6 | 11.3 | 0.00 | 0.10 | 0.03 | 56 | 1013.8 |
| 20260506040030 | 14 | 150 | 1.6 | 11.3 | 0.00 | 0.10 | 0.03 | 58 | 1013.4 |
| 20260506034535 | 14 | 211 | 9.7 | 14.5 | 0.00 | 0.38 | 0.03 | 57 | 1013.2 |
| 20260506033029 | 14 | 172 | 6.4 | 16.1 | 0.00 | 0.38 | 0.03 | 58 | 1013.0 |
| 20260506031532 | 15 | 198 | 9.7 | 16.1 | 0.00 | 0.38 | 0.03 | 57 | 1012.9 |
| 20260506030039 | 15 | 247 | 4.8 | 17.7 | 0.00 | 0.38 | 0.03 | 56 | 1012.7 |
| 20260506024553 | 15 | 228 | 6.4 | 16.1 | 0.00 | 0.38 | 0.03 | 55 | 1012.5 |
| 20260506023030 | 16 | 215 | 9.7 | 17.7 | 0.00 | 0.38 | 0.03 | 51 | 1012.4 |
| 20260506021531 | 17 | 217 | 6.4 | 12.9 | 0.00 | 0.38 | 0.03 | 48 | 1012.3 |
| 20260506020031 | 18 | 290 | 1.6 | 12.9 | 0.00 | 0.38 | 0.03 | 41 | 1012.1 |
| 20260506014531 | 19 | 326 | 4.8 | 12.9 | 0.00 | 0.76 | 0.03 | 39 | 1012.1 |
| 20260506013040 | 20 | 316 | 3.2 | 14.5 | 0.00 | 0.76 | 0.03 | 38 | 1012.0 |
| 20260506011533 | 20 | 331 | 8.0 | 16.1 | 0.00 | 0.76 | 0.03 | 37 | 1012.1 |
| 20260506010032 | 20 | 303 | 6.4 | 17.7 | 0.00 | 0.76 | 0.03 | 37 | 1012.0 |
| 20260506004532 | 20 | 36 | 4.8 | 19.3 | 0.00 | 1.07 | 0.03 | 34 | 1012.1 |
| 20260506003035 | 20 | 5 | 4.8 | 14.5 | 0.00 | 1.07 | 0.03 | 37 | 1012.0 |
| 20260506001529 | 19 | 352 | 9.7 | 17.7 | 0.00 | 1.07 | 0.03 | 38 | 1012.1 |
| 20260506000029 | 21 | 5 | 4.8 | 19.3 | 0.00 | 1.07 | 0.03 | 37 | 1012.1 |
| 20260505234536 | 21 | 71 | 8.0 | 19.3 | 0.00 | 1.07 | 0.03 | 34 | 1012.0 |
| 20260505233030 | 18 | 352 | 4.8 | 14.5 | 0.00 | 1.07 | 0.03 | 40 | 1012.0 |
| 20260505231532 | 19 | 301 | 6.4 | 22.5 | 0.00 | 1.07 | 0.03 | 40 | 1012.2 |
| 20260505230049 | 18 | 53 | 1.6 | 9.7 | 0.00 | 1.07 | 0.03 | 40 | 1012.4 |
| 20260505224532 | 18 | 122 | 3.2 | 12.9 | 0.00 | 1.07 | 0.03 | 44 | 1012.6 |
| 20260505223029 | 18 | 236 | 1.6 | 8.0 | 0.00 | 1.07 | 0.03 | 41 | 1012.8 |
| 20260505221535 | 19 | 0 | 3.2 | 17.7 | 0.00 | 1.07 | 0.03 | 47 | 1012.9 |
| 20260505220033 | 18 | 309 | 3.2 | 11.3 | 0.00 | 1.07 | 0.03 | 49 | 1013.2 |
| 20260505214531 | 18 | 226 | 8.0 | 16.1 | 0.00 | 1.07 | 0.03 | 46 | 1013.3 |
| 20260505213047 | 18 | 162 | 1.6 | 12.9 | 0.00 | 1.07 | 0.03 | 44 | 1013.4 |
| 20260505211531 | 18 | 317 | 1.6 | 12.9 | 0.00 | 1.07 | 0.03 | 50 | 1013.6 |
| 20260505210032 | 17 | 63 | 4.8 | 16.1 | 0.00 | 1.07 | 0.03 | 49 | 1013.8 |
| 20260505204531 | 17 | 43 | 3.2 | 12.9 | 0.00 | 1.09 | 0.03 | 51 | 1013.8 |
| 20260505203041 | 16 | 0 | 0.0 | 14.5 | 0.00 | 1.09 | 0.03 | 52 | 1013.9 |
| 20260505201529 | 16 | 0 | 4.8 | 14.5 | 0.00 | 1.09 | 0.03 | 55 | 1014.0 |
| 20260505200034 | 16 | 0 | 1.6 | 12.9 | 0.00 | 1.09 | 0.03 | 57 | 1014.0 |
| 20260505194530 | 15 | 22 | 4.8 | 14.5 | 0.00 | 1.09 | 0.03 | 67 | 1014.1 |
| 20260505193031 | 15 | 57 | 4.8 | 14.5 | 0.00 | 1.09 | 0.03 | 68 | 1014.0 |
| 20260505191532 | 13 | 22 | 6.4 | 16.1 | 0.00 | 1.09 | 0.03 | 71 | 1014.0 |
| 20260505190030 | 14 | 313 | 1.6 | 11.3 | 0.00 | 1.09 | 0.03 | 72 | 1014.0 |
| 20260505184529 | 14 | 42 | 0.0 | 11.3 | 0.00 | 1.12 | 0.03 | 76 | 1013.9 |
| 20260505183029 | 13 | 0 | 3.2 | 11.3 | 0.00 | 1.12 | 0.03 | 78 | 1014.0 |
| 20260505181531 | 12 | 77 | 3.2 | 12.9 | 0.00 | 1.12 | 0.03 | 77 | 1014.1 |
| 20260505180033 | 11 | 0 | 0.0 | 8.0 | 0.00 | 1.12 | 0.03 | 79 | 1014.0 |
| 20260505174532 | 11 | 0 | 0.0 | 6.4 | 0.00 | 1.12 | 0.03 | 79 | 1013.8 |
| 20260505173040 | 10 | 119 | 0.0 | 4.8 | 0.00 | 1.12 | 0.03 | 84 | 1013.7 |
| 20260505171531 | 9 | 196 | 0.0 | 6.4 | 0.00 | 1.12 | 0.03 | 85 | 1013.6 |
| 20260505170033 | 9 | 174 | 1.6 | 4.8 | 0.00 | 1.12 | 0.03 | 86 | 1013.6 |
| 20260505164547 | 8 | 109 | 0.0 | 6.4 | 0.00 | 1.12 | 0.03 | 89 | 1013.5 |
| 20260505163031 | 8 | 159 | 0.0 | 6.4 | 0.00 | 1.12 | 0.03 | 89 | 1013.4 |
| 20260505161530 | 8 | 106 | 0.0 | 6.4 | 0.00 | 1.12 | 0.03 | 90 | 1013.2 |